Time;durP1;ratioP1;P1;durP2;ratioP2;P2;SDS_P1;SDS_P2;PMS_P1;PMS_P2;Temp;Humidity;BMP_temperature;BMP_pressure;BME280_temperature;BME280_humidity;BME280_pressure;Samples;Min_cycle;Max_cycle;Signal;HPM_P1;HPM_P2
2022/09/09 00:02:27;;;;;;;2.83;0.60;;;17.80;99.90;;;;;;5003921;28;20049;-76
2022/09/09 00:05:02;;;;;;;2.13;0.95;;;17.80;99.90;;;;;;4998187;28;20112;-76
2022/09/09 00:07:36;;;;;;;3.90;0.77;;;17.80;99.90;;;;;;5001273;28;20054;-75
2022/09/09 00:10:27;;;;;;;2.20;0.85;;;17.90;99.90;;;;;;5002181;28;20050;-76
2022/09/09 00:13:09;;;;;;;;;;;18.00;99.90;;;;;;4999359;28;20056;-76
2022/09/09 00:16:00;;;;;;;2.63;0.70;;;18.00;99.90;;;;;;5001073;28;20402;-76
2022/09/09 00:18:39;;;;;;;1.98;0.90;;;18.00;99.90;;;;;;5008775;28;20080;-76
2022/09/09 00:21:10;;;;;;;5.30;0.90;;;18.10;99.90;;;;;;5002706;28;20066;-76
2022/09/09 00:23:45;;;;;;;1.90;0.73;;;18.10;99.90;;;;;;4997116;28;20714;-76
2022/09/09 00:26:38;;;;;;;2.80;0.85;;;18.20;99.90;;;;;;4996860;28;20042;-76
2022/09/09 00:29:08;;;;;;;4.78;0.60;;;18.20;99.90;;;;;;4995393;28;20125;-76
2022/09/09 00:31:37;;;;;;;5.90;1.10;;;18.20;99.90;;;;;;4991418;28;20061;-76
2022/09/09 00:34:13;;;;;;;1.42;0.68;;;18.30;99.90;;;;;;4991298;28;20496;-76
2022/09/09 00:36:41;;;;;;;4.20;0.65;;;18.30;99.90;;;;;;5002365;28;20046;-76
2022/09/09 00:39:24;;;;;;;2.53;0.77;;;18.30;99.90;;;;;;5000288;28;20050;-76
2022/09/09 00:42:17;;;;;;;4.60;0.82;;;18.40;99.90;;;;;;4999597;28;20050;-76
2022/09/09 00:44:58;;;;;;;1.77;0.60;;;18.40;99.90;;;;;;5001253;28;20064;-76
2022/09/09 00:47:39;;;;;;;2.40;0.63;;;18.50;99.90;;;;;;4997019;28;20049;-76
2022/09/09 00:50:34;;;;;;;3.15;0.77;;;18.50;99.90;;;;;;5002398;28;20058;-76
2022/09/09 00:53:38;;;;;;;1.55;0.65;;;18.50;99.90;;;;;;5007541;28;20054;-77
2022/09/09 00:56:18;;;;;;;2.15;0.60;;;18.60;99.90;;;;;;5002267;28;20077;-76
2022/09/09 00:59:05;;;;;;;1.08;0.70;;;18.60;99.90;;;;;;4996387;28;20394;-76
2022/09/09 01:01:32;;;;;;;4.88;0.80;;;18.60;99.90;;;;;;5002286;28;20058;-76
2022/09/09 01:03:59;;;;;;;4.32;0.85;;;18.60;99.90;;;;;;4994806;28;20051;-76
2022/09/09 01:06:38;;;;;;;2.65;0.93;;;18.70;99.90;;;;;;4999396;28;20424;-76
2022/09/09 01:09:05;;;;;;;3.22;0.77;;;18.70;99.90;;;;;;5007582;28;20069;-76
2022/09/09 01:11:36;;;;;;;3.22;0.55;;;18.70;99.90;;;;;;5011890;28;20400;-75
2022/09/09 01:14:25;;;;;;;3.35;0.60;;;18.70;99.90;;;;;;5003990;28;20046;-76
2022/09/09 01:16:56;;;;;;;5.50;1.02;;;18.80;99.90;;;;;;5002937;28;20050;-76
2022/09/09 01:19:45;;;;;;;3.75;0.75;;;18.80;99.90;;;;;;5005674;28;20049;-76
2022/09/09 01:22:34;;;;;;;2.22;0.57;;;18.80;99.90;;;;;;5011484;28;20046;-75
2022/09/09 01:25:07;;;;;;;4.63;0.90;;;18.80;99.90;;;;;;5005707;28;20042;-75
2022/09/09 01:27:35;;;;;;;4.43;0.90;;;18.80;99.90;;;;;;5010421;28;20042;-75
2022/09/09 01:30:08;;;;;;;2.67;1.42;;;18.80;99.90;;;;;;4999637;28;20046;-76
2022/09/09 01:32:48;;;;;;;4.78;0.82;;;18.80;99.90;;;;;;5008130;28;20054;-76
2022/09/09 01:35:30;;;;;;;4.10;0.90;;;18.80;99.90;;;;;;5009881;28;20057;-76
2022/09/09 01:37:57;;;;;;;3.33;1.00;;;18.80;99.90;;;;;;5005778;28;20136;-76
2022/09/09 01:40:25;;;;;;;3.80;0.88;;;18.80;99.90;;;;;;5001355;28;20045;-76
2022/09/09 01:42:53;;;;;;;2.25;0.60;;;18.80;99.90;;;;;;5004182;28;20081;-76
2022/09/09 01:45:21;;;;;;;2.88;0.90;;;18.70;99.90;;;;;;5006580;28;20049;-76
2022/09/09 01:47:48;;;;;;;1.38;0.65;;;18.70;99.90;;;;;;4999973;28;20092;-76
2022/09/09 01:50:16;;;;;;;1.95;0.75;;;18.70;99.90;;;;;;5007792;28;20050;-76
2022/09/09 01:52:44;;;;;;;2.67;0.90;;;18.70;99.90;;;;;;5010365;28;20104;-76
2022/09/09 01:55:12;;;;;;;3.72;0.90;;;18.60;99.90;;;;;;5002062;28;20054;-76
2022/09/09 01:58:02;;;;;;;4.35;0.80;;;18.60;99.90;;;;;;5002501;28;20053;-76
2022/09/09 02:00:31;;;;;;;4.63;0.90;;;18.50;99.90;;;;;;5003455;28;20061;-76
2022/09/09 02:03:12;;;;;;;3.50;0.60;;;18.50;99.90;;;;;;4999712;28;20464;-76
2022/09/09 02:05:45;;;;;;;4.85;1.13;;;18.50;99.90;;;;;;5005996;28;20519;-75
2022/09/09 02:08:20;;;;;;;2.58;0.80;;;18.50;99.90;;;;;;4997446;28;20050;-75
2022/09/09 02:11:00;;;;;;;2.45;0.70;;;18.40;99.90;;;;;;5004128;28;20054;-76
2022/09/09 02:13:31;;;;;;;2.72;0.88;;;18.40;99.90;;;;;;4993597;28;20058;-76
2022/09/09 02:16:24;;;;;;;4.43;0.88;;;18.30;99.90;;;;;;4995551;28;20046;-76
2022/09/09 02:19:10;;;;;;;3.13;0.70;;;18.30;99.90;;;;;;4997039;28;20050;-76
2022/09/09 02:21:37;;;;;;;1.63;0.70;;;18.30;99.90;;;;;;5003075;28;20060;-76
2022/09/09 02:24:10;;;;;;;3.45;0.80;;;18.30;99.90;;;;;;5002349;28;20050;-76
2022/09/09 02:26:41;;;;;;;2.72;0.73;;;18.20;99.90;;;;;;4998960;28;20115;-75
2022/09/09 02:29:18;;;;;;;1.25;0.55;;;18.20;99.90;;;;;;5009720;28;20405;-76
2022/09/09 02:31:47;;;;;;;5.47;0.85;;;18.20;99.90;;;;;;4995098;28;20050;-76
2022/09/09 02:34:16;;;;;;;5.57;1.20;;;18.20;99.90;;;;;;5007081;28;20045;-76
2022/09/09 02:36:45;;;;;;;2.63;0.50;;;18.20;99.90;;;;;;4999140;28;20108;-76
2022/09/09 02:39:13;;;;;;;5.53;0.90;;;18.20;99.90;;;;;;5005821;28;20050;-76
2022/09/09 02:41:41;;;;;;;2.33;0.73;;;18.20;99.90;;;;;;5001750;28;20049;-76
2022/09/09 02:44:17;;;;;;;3.85;0.82;;;18.20;99.90;;;;;;5009989;28;20053;-77
2022/09/09 02:47:05;;;;;;;3.45;0.75;;;18.20;99.90;;;;;;5000776;28;20042;-76
2022/09/09 02:50:10;;;;;;;4.05;0.88;;;18.20;99.90;;;;;;5009292;28;20054;-76
2022/09/09 02:52:48;;;;;;;4.13;0.80;;;18.20;99.90;;;;;;4999739;28;20054;-76
2022/09/09 02:55:42;;;;;;;4.72;0.70;;;18.30;99.90;;;;;;4997550;28;20427;-76
2022/09/09 02:58:12;;;;;;;3.05;0.80;;;18.20;99.90;;;;;;4999702;28;20050;-76
2022/09/09 03:00:39;;;;;;;3.58;1.00;;;18.20;99.90;;;;;;5008462;28;20093;-76
2022/09/09 03:03:08;;;;;;;3.95;0.80;;;18.20;99.90;;;;;;5007977;28;20054;-76
2022/09/09 03:05:36;;;;;;;1.83;0.70;;;18.20;99.90;;;;;;4998985;28;20046;-76
2022/09/09 03:08:05;;;;;;;1.65;0.80;;;18.20;99.90;;;;;;5001826;28;20054;-76
2022/09/09 03:10:33;;;;;;;1.20;0.55;;;18.20;99.90;;;;;;5001627;28;20049;-76
2022/09/09 03:12:59;;;;;;;3.38;0.95;;;18.20;99.90;;;;;;4996349;28;20051;-76
2022/09/09 03:15:30;;;;;;;3.97;0.90;;;18.20;99.90;;;;;;5004924;28;20053;-76
2022/09/09 03:17:58;;;;;;;3.15;0.80;;;18.20;99.90;;;;;;4996781;28;20061;-76
2022/09/09 03:20:26;;;;;;;3.92;0.57;;;18.20;99.90;;;;;;5003197;28;20491;-76
2022/09/09 03:22:53;;;;;;;2.60;1.08;;;18.30;99.90;;;;;;4999125;28;20050;-76
2022/09/09 03:25:20;;;;;;;3.08;0.70;;;18.20;99.90;;;;;;5003143;28;20045;-76
2022/09/09 03:27:47;;;;;;;2.22;0.60;;;18.30;99.90;;;;;;5002431;28;20042;-76
2022/09/09 03:30:13;;;;;;;2.55;0.82;;;18.30;99.90;;;;;;4997983;28;20050;-76
2022/09/09 03:32:40;;;;;;;1.48;0.60;;;18.20;99.90;;;;;;5005924;28;20551;-76
2022/09/09 03:35:07;;;;;;;2.50;1.20;;;18.20;99.90;;;;;;4997441;28;20058;-75
2022/09/09 03:37:34;;;;;;;2.33;0.60;;;18.30;99.90;;;;;;5004397;28;20054;-75
2022/09/09 03:40:01;;;;;;;1.25;0.82;;;18.20;99.90;;;;;;5000184;28;20115;-76
2022/09/09 03:42:28;;;;;;;0.82;0.60;;;18.20;99.90;;;;;;4998265;28;20057;-75
2022/09/09 03:44:57;;;;;;;4.63;0.75;;;18.10;99.90;;;;;;5003373;28;20076;-75
2022/09/09 03:47:24;;;;;;;3.05;0.70;;;18.10;99.90;;;;;;4995923;28;20065;-75
2022/09/09 03:49:50;;;;;;;4.18;0.85;;;18.10;99.90;;;;;;5005926;28;20053;-75
2022/09/09 03:52:18;;;;;;;6.43;1.40;;;18.00;99.90;;;;;;4998297;28;20072;-75
2022/09/09 03:54:49;;;;;;;4.97;1.40;;;18.00;99.90;;;;;;5008563;28;20050;-75
2022/09/09 03:57:16;;;;;;;2.65;0.85;;;17.90;99.90;;;;;;5001854;28;20078;-76
2022/09/09 03:59:43;;;;;;;3.05;0.88;;;17.80;99.90;;;;;;4991422;28;20053;-75
2022/09/09 04:02:10;;;;;;;4.07;0.80;;;17.80;99.90;;;;;;4991741;28;20130;-76
2022/09/09 04:04:37;;;;;;;4.35;0.80;;;17.80;99.90;;;;;;5004237;28;20076;-75
2022/09/09 04:07:06;;;;;;;2.20;0.70;;;17.70;99.90;;;;;;5005930;28;20052;-75
2022/09/09 04:09:33;;;;;;;2.72;0.70;;;17.70;99.90;;;;;;5003804;28;20133;-75
2022/09/09 04:12:00;;;;;;;2.70;0.80;;;17.70;99.90;;;;;;5002768;28;20050;-76
2022/09/09 04:14:28;;;;;;;1.38;0.50;;;17.60;99.90;;;;;;5001929;28;20062;-76
2022/09/09 04:16:57;;;;;;;5.05;1.00;;;17.60;99.90;;;;;;4998547;28;20053;-76
2022/09/09 04:19:24;;;;;;;3.63;1.33;;;17.60;99.90;;;;;;4997743;28;20078;-76
2022/09/09 04:21:51;;;;;;;4.85;0.68;;;17.60;99.90;;;;;;5004824;28;20061;-76
2022/09/09 04:24:18;;;;;;;1.83;0.70;;;17.50;99.90;;;;;;5006703;28;20101;-77
2022/09/09 04:26:45;;;;;;;1.77;0.68;;;17.50;99.90;;;;;;4991402;28;20046;-75
2022/09/09 04:29:12;;;;;;;3.60;0.80;;;17.40;99.90;;;;;;5008481;28;20049;-75
2022/09/09 04:31:41;;;;;;;5.43;1.00;;;17.40;99.90;;;;;;4991436;28;20061;-76
2022/09/09 04:34:09;;;;;;;3.08;0.70;;;17.40;99.90;;;;;;4994848;28;20054;-76
2022/09/09 04:36:36;;;;;;;4.28;0.98;;;17.40;99.90;;;;;;5011793;28;20050;-76
2022/09/09 04:39:02;;;;;;;3.38;0.80;;;17.40;99.90;;;;;;5008283;28;20423;-75
2022/09/09 04:41:31;;;;;;;3.83;1.35;;;17.40;99.90;;;;;;5012071;28;20065;-76
2022/09/09 04:43:59;;;;;;;3.08;0.82;;;17.50;99.90;;;;;;5004186;28;20054;-76
2022/09/09 04:46:26;;;;;;;1.88;0.80;;;17.60;99.90;;;;;;5000176;28;20050;-75
2022/09/09 04:48:53;;;;;;;4.68;0.82;;;17.60;99.90;;;;;;5007252;28;20065;-75
2022/09/09 04:51:20;;;;;;;2.03;0.88;;;17.60;99.90;;;;;;5009530;28;20129;-75
2022/09/09 04:53:47;;;;;;;1.88;0.65;;;17.70;99.90;;;;;;5005566;28;20067;-76
2022/09/09 04:56:16;;;;;;;3.15;0.70;;;17.70;99.90;;;;;;5007114;28;20048;-76
2022/09/09 04:58:43;;;;;;;2.75;0.80;;;17.70;99.90;;;;;;5007409;28;20042;-75
2022/09/09 05:01:18;;;;;;;2.13;0.70;;;17.80;99.90;;;;;;5006737;28;20070;-76
2022/09/09 05:03:45;;;;;;;6.30;0.80;;;17.80;99.90;;;;;;5002056;28;20053;-75
2022/09/09 05:06:15;;;;;;;3.10;0.73;;;17.80;99.90;;;;;;5002903;28;20056;-75
2022/09/09 05:08:43;;;;;;;4.13;0.98;;;17.80;99.90;;;;;;5003351;28;20042;-75
2022/09/09 05:11:18;;;;;;;3.95;0.70;;;17.90;99.90;;;;;;5003367;28;20538;-76
2022/09/09 05:13:45;;;;;;;8.10;0.82;;;17.90;99.90;;;;;;5002720;28;20057;-75
2022/09/09 05:16:13;;;;;;;3.55;0.68;;;17.80;99.90;;;;;;5001464;28;20050;-75
2022/09/09 05:18:42;;;;;;;4.75;0.63;;;17.80;99.90;;;;;;5002895;28;20050;-76
2022/09/09 05:21:10;;;;;;;3.72;0.73;;;17.90;99.90;;;;;;5009338;28;20523;-75
2022/09/09 05:23:37;;;;;;;3.13;1.08;;;17.90;99.90;;;;;;5002605;28;20061;-75
2022/09/09 05:26:05;;;;;;;4.03;1.25;;;18.00;99.90;;;;;;5006055;28;20057;-75
2022/09/09 05:28:34;;;;;;;2.22;0.68;;;18.00;99.90;;;;;;5001926;28;20046;-76
2022/09/09 05:31:07;;;;;;;1.35;0.70;;;18.00;99.90;;;;;;5005732;28;20136;-76
2022/09/09 05:33:35;;;;;;;3.83;0.98;;;18.10;99.90;;;;;;5006584;28;20050;-75
2022/09/09 05:36:04;;;;;;;3.20;0.85;;;18.00;99.90;;;;;;5005333;28;20076;-75
2022/09/09 05:38:32;;;;;;;2.78;0.77;;;18.10;99.90;;;;;;4997497;28;20046;-76
2022/09/09 05:40:59;;;;;;;4.60;1.00;;;18.10;99.90;;;;;;5007400;28;20052;-75
2022/09/09 05:43:27;;;;;;;4.20;0.82;;;18.20;99.90;;;;;;5004347;28;20510;-75
2022/09/09 05:46:07;;;;;;;4.88;0.70;;;18.10;99.90;;;;;;5004063;28;20054;-75
2022/09/09 05:48:42;;;;;;;4.53;0.80;;;18.20;99.90;;;;;;5006319;28;20416;-75
2022/09/09 05:51:17;;;;;;;3.90;0.90;;;18.20;99.90;;;;;;5004112;28;20428;-76
2022/09/09 05:53:45;;;;;;;4.25;0.70;;;18.10;99.90;;;;;;5004842;28;20050;-75
2022/09/09 05:56:20;;;;;;;5.50;0.85;;;18.10;99.90;;;;;;5006248;28;20054;-76
2022/09/09 05:58:49;;;;;;;1.83;0.57;;;18.10;99.90;;;;;;5000845;28;20057;-76
2022/09/09 06:01:21;;;;;;;6.30;0.83;;;18.10;99.90;;;;;;5009289;28;20050;-76
2022/09/09 06:03:49;;;;;;;3.15;0.98;;;18.20;99.90;;;;;;5007709;28;20050;-76
2022/09/09 06:06:25;;;;;;;5.30;1.00;;;18.10;99.90;;;;;;5000753;28;20568;-76
2022/09/09 06:08:54;;;;;;;2.78;1.00;;;18.20;99.90;;;;;;5009968;28;20081;-75
2022/09/09 06:11:24;;;;;;;4.57;0.63;;;18.20;99.90;;;;;;5002754;28;20061;-75
2022/09/09 06:13:53;;;;;;;2.70;0.70;;;18.20;99.90;;;;;;4999139;28;20164;-76
2022/09/09 06:16:26;;;;;;;3.65;0.82;;;18.30;99.90;;;;;;5005503;28;20046;-76
2022/09/09 06:18:54;;;;;;;2.10;0.60;;;18.30;99.90;;;;;;5007878;28;20062;-76
2022/09/09 06:21:23;;;;;;;6.45;0.70;;;18.30;99.90;;;;;;5006078;28;20050;-75
2022/09/09 06:23:51;;;;;;;4.60;0.80;;;18.30;99.90;;;;;;5001424;28;20053;-75
2022/09/09 06:26:26;;;;;;;4.30;0.80;;;18.30;99.90;;;;;;5002223;28;20046;-75
2022/09/09 06:28:55;;;;;;;3.80;1.00;;;18.30;99.90;;;;;;5002356;28;20411;-76
2022/09/09 06:31:23;;;;;;;5.78;0.93;;;18.30;99.90;;;;;;5001729;28;20057;-76
2022/09/09 06:33:56;;;;;;;5.93;1.45;;;18.30;99.90;;;;;;5001000;28;20073;-76
2022/09/09 06:36:29;;;;;;;3.08;0.85;;;18.30;99.90;;;;;;5008497;28;20045;-75
2022/09/09 06:38:55;;;;;;;5.28;1.00;;;18.40;99.90;;;;;;5007277;28;20050;-75
2022/09/09 06:41:26;;;;;;;4.00;1.00;;;18.40;99.90;;;;;;4999475;28;20042;-76
2022/09/09 06:43:53;;;;;;;3.85;1.48;;;18.50;99.90;;;;;;5004450;28;20073;-75
2022/09/09 06:46:21;;;;;;;2.33;0.77;;;18.50;99.90;;;;;;5002239;28;20046;-75
2022/09/09 06:48:48;;;;;;;3.53;0.75;;;18.50;99.90;;;;;;4998784;28;20050;-75
2022/09/09 06:51:23;;;;;;;4.70;1.10;;;18.40;99.90;;;;;;5005367;28;20061;-75
2022/09/09 06:53:51;;;;;;;3.55;0.73;;;18.40;99.90;;;;;;4995128;28;20050;-75
2022/09/09 06:56:22;;;;;;;;;;;18.40;99.90;;;;;;5007343;28;20053;-76
2022/09/09 06:58:51;;;;;;;5.70;1.00;;;18.40;99.90;;;;;;4998974;28;19921;-75
2022/09/09 07:01:30;;;;;;;1.45;0.65;;;18.40;99.90;;;;;;5002483;28;20050;-75
2022/09/09 07:03:58;;;;;;;4.85;0.93;;;18.40;99.90;;;;;;5003214;28;20100;-76
2022/09/09 07:06:34;;;;;;;4.10;0.90;;;18.50;99.90;;;;;;4997957;28;20054;-76
2022/09/09 07:09:04;;;;;;;5.97;1.10;;;18.50;99.90;;;;;;5004126;28;20046;-75
2022/09/09 07:11:34;;;;;;;4.55;1.00;;;18.60;99.90;;;;;;4995282;28;20054;-76
2022/09/09 07:14:00;;;;;;;3.00;0.70;;;18.70;99.90;;;;;;5006064;28;20627;-75
2022/09/09 07:16:29;;;;;;;1.90;0.70;;;18.80;99.90;;;;;;4998135;28;20061;-75
2022/09/09 07:18:57;;;;;;;5.93;0.98;;;18.90;99.90;;;;;;5004037;28;20491;-75
2022/09/09 07:21:26;;;;;;;9.65;1.00;;;18.90;99.90;;;;;;5003045;28;20103;-75
2022/09/09 07:23:53;;;;;;;2.55;1.10;;;18.90;99.90;;;;;;5006557;28;20538;-75
2022/09/09 07:26:23;;;;;;;3.03;0.88;;;18.90;99.90;;;;;;5004465;28;20105;-76
2022/09/09 07:28:49;;;;;;;2.20;0.85;;;18.90;99.90;;;;;;4997350;28;20050;-76
2022/09/09 07:31:22;;;;;;;4.40;0.73;;;19.00;99.90;;;;;;5007276;28;20053;-76
2022/09/09 07:33:49;;;;;;;3.03;0.70;;;19.00;99.90;;;;;;5004984;28;20134;-76
2022/09/09 07:36:21;;;;;;;4.47;0.75;;;19.10;99.90;;;;;;5008912;28;20050;-75
2022/09/09 07:38:51;;;;;;;3.72;0.90;;;19.00;99.90;;;;;;5001245;28;20054;-75
2022/09/09 07:41:22;;;;;;;5.80;1.05;;;19.10;99.90;;;;;;4998106;28;20057;-76
2022/09/09 07:43:49;;;;;;;2.83;0.68;;;19.20;99.90;;;;;;5004151;28;20046;-76
2022/09/09 07:46:19;;;;;;;5.30;1.02;;;19.10;99.90;;;;;;4995358;28;20054;-75
2022/09/09 07:48:51;;;;;;;4.45;1.17;;;19.10;99.90;;;;;;5005577;28;20081;-75
2022/09/09 07:51:22;;;;;;;5.00;1.00;;;19.10;99.90;;;;;;4998204;28;20516;-76
2022/09/09 07:53:52;;;;;;;4.03;0.98;;;19.10;99.90;;;;;;5001784;28;20060;-76
2022/09/09 07:56:23;;;;;;;6.38;0.82;;;19.10;99.90;;;;;;5001051;28;20057;-75
2022/09/09 07:58:51;;;;;;;4.72;1.00;;;19.10;99.90;;;;;;5008942;28;20518;-75
2022/09/09 08:01:27;;;;;;;6.70;0.88;;;19.10;99.90;;;;;;4999393;28;20054;-75
2022/09/09 08:04:00;;;;;;;4.28;1.00;;;19.20;99.90;;;;;;4991674;28;20161;-76
2022/09/09 08:06:34;;;;;;;5.28;0.80;;;19.20;99.90;;;;;;4991818;28;20109;-76
2022/09/09 08:09:01;;;;;;;8.70;0.98;;;19.20;99.90;;;;;;5005975;28;20054;-76
2022/09/09 08:11:29;;;;;;;8.18;1.10;;;19.20;99.90;;;;;;5012588;28;20061;-75
2022/09/09 08:14:03;;;;;;;3.33;0.77;;;19.20;99.90;;;;;;5006971;28;20075;-76
2022/09/09 08:16:33;;;;;;;3.83;0.93;;;19.20;99.90;;;;;;5012835;28;20053;-76
2022/09/09 08:19:00;;;;;;;6.18;1.27;;;19.10;99.90;;;;;;5003703;28;20053;-76
2022/09/09 08:21:29;;;;;;;5.30;1.17;;;19.10;99.90;;;;;;5002240;28;20097;-75
2022/09/09 08:23:58;;;;;;;4.07;0.98;;;19.10;99.90;;;;;;5011153;28;20046;-75
2022/09/09 08:26:31;;;;;;;3.40;0.85;;;19.10;99.90;;;;;;5002759;28;20043;-76
2022/09/09 08:29:00;;;;;;;5.88;1.35;;;19.10;99.90;;;;;;5006755;28;20049;-75
2022/09/09 08:31:33;;;;;;;4.93;1.10;;;19.20;99.90;;;;;;5004889;28;20050;-76
2022/09/09 08:34:01;;;;;;;11.20;1.35;;;19.30;99.90;;;;;;5002657;28;20050;-76
2022/09/09 08:36:29;;;;;;;4.60;1.10;;;19.40;99.90;;;;;;5006345;28;20050;-77
2022/09/09 08:38:57;;;;;;;8.95;0.90;;;19.50;99.90;;;;;;4998667;28;20132;-76
2022/09/09 08:42:01;;;;;;;2.28;0.70;;;19.70;99.90;;;;;;5001602;28;20057;-76
2022/09/09 08:44:34;;;;;;;1.52;0.60;;;19.80;99.90;;;;;;5010330;28;20096;-76
2022/09/09 08:47:13;;;;;;;4.45;1.60;;;20.00;99.90;;;;;;5010080;28;20046;-76
2022/09/09 08:49:49;;;;;;;7.10;0.82;;;20.10;99.90;;;;;;5001041;28;20447;-76
2022/09/09 08:52:22;;;;;;;8.48;1.08;;;20.20;99.90;;;;;;5006900;28;20054;-76
2022/09/09 08:54:50;;;;;;;0.93;0.55;;;20.30;99.90;;;;;;5006251;28;20419;-77
2022/09/09 08:57:27;;;;;;;3.63;0.68;;;20.40;99.90;;;;;;5012824;28;20049;-77
2022/09/09 08:59:56;;;;;;;5.57;0.98;;;20.50;99.90;;;;;;5005992;28;20050;-76
2022/09/09 09:02:23;;;;;;;2.47;0.85;;;20.50;99.90;;;;;;4999297;28;20046;-77
2022/09/09 09:04:49;;;;;;;4.60;0.80;;;20.60;99.90;;;;;;5009083;28;20046;-76
2022/09/09 09:07:53;;;;;;;4.00;0.80;;;20.60;99.90;;;;;;5000354;28;20117;-77
2022/09/09 09:10:38;;;;;;;2.83;0.68;;;20.50;99.90;;;;;;4998601;28;20057;-76
2022/09/09 09:13:20;;;;;;;4.32;1.00;;;20.40;99.90;;;;;;5008559;28;20054;-77
2022/09/09 09:15:56;;;;;;;7.55;1.00;;;20.30;99.90;;;;;;5011261;28;20053;-76
2022/09/09 09:18:23;;;;;;;4.25;0.98;;;20.20;99.90;;;;;;5005509;28;20046;-76
2022/09/09 09:21:10;;;;;;;4.35;0.65;;;20.20;99.90;;;;;;5010811;28;20045;-76
2022/09/09 09:23:50;;;;;;;6.35;1.08;;;20.10;99.90;;;;;;5004056;28;20056;-76
2022/09/09 09:26:18;;;;;;;5.47;0.80;;;20.10;99.90;;;;;;5012162;28;20053;-76
2022/09/09 09:28:45;;;;;;;9.13;0.90;;;20.10;99.90;;;;;;5006402;28;20138;-76
2022/09/09 09:31:13;;;;;;;3.80;0.98;;;20.10;99.90;;;;;;5009317;28;20058;-76
2022/09/09 09:33:44;;;;;;;5.60;0.57;;;20.10;99.90;;;;;;5006479;28;20057;-76
2022/09/09 09:36:13;;;;;;;6.22;0.88;;;20.20;99.90;;;;;;5008888;28;20054;-76
2022/09/09 09:38:50;;;;;;;3.72;0.70;;;20.40;99.90;;;;;;5005782;28;20049;-77
2022/09/09 09:41:42;;;;;;;3.88;0.80;;;20.50;99.90;;;;;;5005595;28;20495;-76
2022/09/09 09:44:28;;;;;;;6.05;0.80;;;20.60;99.90;;;;;;5011532;28;20415;-76
2022/09/09 09:47:12;;;;;;;3.80;0.85;;;20.70;99.90;;;;;;5004607;28;20046;-77
2022/09/09 09:49:50;;;;;;;2.88;0.68;;;20.70;99.90;;;;;;5002112;28;20046;-76
2022/09/09 09:52:22;;;;;;;5.07;0.82;;;20.70;99.90;;;;;;5005274;28;20401;-76
2022/09/09 09:54:49;;;;;;;8.10;0.98;;;20.80;99.90;;;;;;4997484;28;20054;-77
2022/09/09 09:57:17;;;;;;;4.55;1.17;;;20.90;99.90;;;;;;5007938;28;20054;-76
2022/09/09 09:59:45;;;;;;;5.57;1.10;;;20.90;99.90;;;;;;4999536;28;20088;-76
2022/09/09 10:02:19;;;;;;;3.50;0.40;;;20.90;99.90;;;;;;5004742;28;20046;-76
2022/09/09 10:04:47;;;;;;;4.35;1.23;;;20.80;99.90;;;;;;5002269;28;20507;-76
2022/09/09 10:07:22;;;;;;;5.20;0.98;;;20.80;99.90;;;;;;5000634;28;20050;-76
2022/09/09 10:09:54;;;;;;;4.55;0.70;;;20.80;99.90;;;;;;5004366;28;20056;-77
2022/09/09 10:12:30;;;;;;;4.60;0.80;;;20.90;99.90;;;;;;5009927;28;20054;-77
2022/09/09 10:15:02;;;;;;;2.75;0.65;;;20.90;99.90;;;;;;4999625;28;20072;-76
2022/09/09 10:18:31;;;;;;;3.17;0.70;;;21.00;99.90;;;;;;4997915;28;20515;-76
2022/09/09 10:21:08;;;;;;;4.90;0.93;;;21.30;99.90;;;;;;4961890;28;20536;-76
2022/09/09 10:23:53;;;;;;;5.85;1.42;;;21.50;99.90;;;;;;4971660;28;20047;-77
2022/09/09 10:26:27;;;;;;;2.30;0.80;;;21.60;99.90;;;;;;5000611;28;20046;-76
2022/09/09 10:29:05;;;;;;;3.92;0.75;;;21.70;99.90;;;;;;4998882;28;20046;-76
2022/09/09 10:31:56;;;;;;;4.68;0.75;;;21.80;99.90;;;;;;4996260;28;20413;-76
2022/09/09 10:34:35;;;;;;;3.20;0.82;;;21.70;99.90;;;;;;5000689;28;20050;-76
2022/09/09 10:37:15;;;;;;;3.97;0.90;;;21.70;99.90;;;;;;5007510;28;20050;-76
2022/09/09 10:39:42;;;;;;;4.90;0.80;;;21.80;99.90;;;;;;5001144;28;20057;-76
2022/09/09 10:42:24;;;;;;;1.88;0.63;;;21.90;99.90;;;;;;5000534;28;20054;-76
2022/09/09 10:45:16;;;;;;;3.40;1.15;;;22.00;99.90;;;;;;5008515;28;20052;-75
2022/09/09 10:48:26;;;;;;;4.43;0.90;;;22.10;99.90;;;;;;5010063;28;20173;-76
2022/09/09 10:51:03;;;;;;;4.60;0.95;;;22.10;99.90;;;;;;4991491;28;20050;-77
2022/09/09 10:53:35;;;;;;;7.70;1.23;;;22.10;99.90;;;;;;4998326;28;20046;-77
2022/09/09 10:56:10;;;;;;;3.38;0.70;;;22.10;99.90;;;;;;5000006;28;20054;-77
2022/09/09 10:59:26;;;;;;;8.48;1.10;;;22.10;99.90;;;;;;5008609;28;20104;-77
2022/09/09 11:01:57;;;;;;;5.57;1.08;;;22.00;99.90;;;;;;4997701;28;20041;-77
2022/09/09 11:04:48;;;;;;;9.73;1.20;;;21.80;99.90;;;;;;5008323;28;20049;-77
2022/09/09 11:07:43;;;;;;;3.58;1.00;;;21.70;99.90;;;;;;5005310;28;20042;-76
2022/09/09 11:10:18;;;;;;;5.82;0.70;;;21.60;99.90;;;;;;5003661;28;20519;-77
2022/09/09 11:12:47;;;;;;;6.82;1.08;;;21.60;99.90;;;;;;5001924;28;20053;-77
2022/09/09 11:15:25;;;;;;;6.85;1.30;;;21.60;99.90;;;;;;5006741;28;20049;-77
2022/09/09 11:17:56;;;;;;;7.00;1.00;;;21.60;99.90;;;;;;4998066;28;20057;-77
2022/09/09 11:20:25;;;;;;;4.15;1.05;;;21.70;99.90;;;;;;5003905;28;20046;-76
2022/09/09 11:23:04;;;;;;;4.03;1.10;;;21.70;99.90;;;;;;5009536;28;20057;-77
2022/09/09 11:25:39;;;;;;;5.93;0.85;;;21.80;99.90;;;;;;5000439;28;20050;-76
2022/09/09 11:28:22;;;;;;;3.00;0.98;;;21.70;99.90;;;;;;4997799;28;20467;-77
2022/09/09 11:31:16;;;;;;;10.68;1.05;;;21.70;99.90;;;;;;5001028;28;20046;-77
2022/09/09 11:34:12;;;;;;;6.18;0.80;;;21.60;99.90;;;;;;4996488;28;20477;-77
2022/09/09 11:37:06;;;;;;;6.10;1.02;;;21.70;99.90;;;;;;5000185;28;20046;-76
2022/09/09 11:39:39;;;;;;;3.17;0.70;;;21.80;99.90;;;;;;5000282;28;20054;-77
2022/09/09 11:42:20;;;;;;;5.90;0.93;;;21.80;99.90;;;;;;4999965;28;20052;-77
2022/09/09 11:44:46;;;;;;;3.05;0.40;;;21.90;99.90;;;;;;5001823;28;20050;-76
2022/09/09 11:47:31;;;;;;;3.15;0.60;;;21.80;99.90;;;;;;4996261;28;20054;-77
2022/09/09 11:50:15;;;;;;;11.07;1.23;;;21.80;99.90;;;;;;5004515;28;20047;-77
2022/09/09 11:52:48;;;;;;;2.67;0.55;;;21.80;99.90;;;;;;4998854;28;20511;-76
2022/09/09 11:55:41;;;;;;;4.43;1.00;;;21.80;99.90;;;;;;5001458;28;20125;-77
2022/09/09 11:58:13;;;;;;;7.90;1.00;;;21.90;99.90;;;;;;4996186;28;20061;-77
2022/09/09 12:00:44;;;;;;;7.68;1.00;;;22.00;99.90;;;;;;4999978;28;20507;-77
2022/09/09 12:03:36;;;;;;;7.38;1.15;;;22.00;99.90;;;;;;5006455;28;20038;-77
2022/09/09 12:06:24;;;;;;;5.47;0.82;;;21.90;99.90;;;;;;5002678;28;20053;-77
2022/09/09 12:08:58;;;;;;;9.93;0.90;;;21.90;99.90;;;;;;4998563;28;20053;-77
2022/09/09 12:11:27;;;;;;;3.72;0.82;;;21.90;99.90;;;;;;5005684;28;20409;-77
2022/09/09 12:13:56;;;;;;;2.88;0.70;;;22.00;99.90;;;;;;5001582;28;20057;-76
2022/09/09 12:16:38;;;;;;;6.53;1.15;;;22.00;99.90;;;;;;5000708;28;20056;-77
2022/09/09 12:19:14;;;;;;;3.22;1.00;;;22.10;99.90;;;;;;5002323;28;20519;-77
2022/09/09 12:21:56;;;;;;;6.80;0.70;;;22.10;99.90;;;;;;4999963;28;20117;-77
2022/09/09 12:24:41;;;;;;;9.95;1.75;;;22.10;99.90;;;;;;4997445;28;20050;-77
2022/09/09 12:27:24;;;;;;;6.68;1.42;;;22.20;99.90;;;;;;5000307;28;20054;-77
2022/09/09 12:32:37;;;;;;;4.78;0.85;;;22.30;99.90;;;;;;5022321;23;20065;-79
2022/09/09 12:35:14;;;;;;;5.75;1.13;;;22.40;99.90;;;;;;5004291;28;20236;-79
2022/09/09 12:37:51;;;;;;;4.32;0.85;;;22.50;99.90;;;;;;5005492;28;20050;-80
2022/09/09 12:40:37;;;;;;;2.80;0.95;;;22.60;99.90;;;;;;5005652;28;20052;-79
2022/09/09 12:43:21;;;;;;;4.43;0.93;;;22.60;99.90;;;;;;4999947;28;20046;-78
2022/09/09 12:45:56;;;;;;;5.22;0.75;;;22.70;99.90;;;;;;5001803;28;20128;-78
2022/09/09 12:48:45;;;;;;;4.15;0.70;;;22.70;99.90;;;;;;5002070;28;20042;-80
2022/09/09 12:51:26;;;;;;;5.72;0.80;;;22.60;99.90;;;;;;5002773;28;20160;-79
2022/09/09 12:53:55;;;;;;;6.03;0.73;;;22.40;99.90;;;;;;5003238;28;20046;-80
2022/09/09 12:56:28;;;;;;;7.47;1.00;;;22.30;99.90;;;;;;5006861;28;20049;-78
2022/09/09 12:58:58;;;;;;;1.48;0.45;;;22.20;99.90;;;;;;5005881;28;20057;-79
2022/09/09 13:01:26;;;;;;;2.40;0.75;;;22.00;99.90;;;;;;5006946;28;20046;-80
2022/09/09 13:03:53;;;;;;;4.85;0.35;;;21.60;99.90;;;;;;5006847;28;20046;-78
2022/09/09 13:06:22;;;;;;;1.63;0.60;;;21.40;99.90;;;;;;5006478;28;20061;-80
2022/09/09 13:08:56;;;;;;;3.85;0.63;;;21.20;99.90;;;;;;5003590;28;20049;-77
2022/09/09 13:11:30;;;;;;;0.60;0.30;;;21.20;99.90;;;;;;5007314;28;20061;-78
2022/09/09 13:13:58;;;;;;;2.40;0.20;;;21.30;99.90;;;;;;5001676;28;20050;-79
2022/09/09 13:16:33;;;;;;;3.88;0.38;;;21.30;99.90;;;;;;5005658;28;20081;-79
2022/09/09 13:19:13;;;;;;;1.10;0.30;;;21.40;99.90;;;;;;5005809;28;20050;-79
2022/09/09 13:21:40;;;;;;;2.30;0.40;;;21.50;99.90;;;;;;5006508;28;20050;-80
2022/09/09 13:24:24;;;;;;;1.45;0.30;;;21.60;99.90;;;;;;5007516;28;20046;-79
2022/09/09 13:26:56;;;;;;;3.03;0.30;;;21.50;99.90;;;;;;5006834;28;20045;-79